sensor_id;sensor_type;location;lat;lon;timestamp;temperature;humidity
8487;DHT22;4280;50.534;8.708;2022-08-14T00:00:53;19.70;25.30
8487;DHT22;4280;50.534;8.708;2022-08-14T00:03:24;19.50;26.20
8487;DHT22;4280;50.534;8.708;2022-08-14T00:05:57;19.40;27.50
8487;DHT22;4280;50.534;8.708;2022-08-14T00:08:28;19.30;27.40
8487;DHT22;4280;50.534;8.708;2022-08-14T00:11:00;19.20;28.50
8487;DHT22;4280;50.534;8.708;2022-08-14T00:13:30;19.10;29.40
8487;DHT22;4280;50.534;8.708;2022-08-14T00:16:01;18.90;30.80
8487;DHT22;4280;50.534;8.708;2022-08-14T00:18:31;18.80;31.00
8487;DHT22;4280;50.534;8.708;2022-08-14T00:21:01;18.70;35.60
8487;DHT22;4280;50.534;8.708;2022-08-14T00:23:31;18.70;36.70
8487;DHT22;4280;50.534;8.708;2022-08-14T00:26:05;18.60;37.00
8487;DHT22;4280;50.534;8.708;2022-08-14T00:28:35;18.70;36.50
8487;DHT22;4280;50.534;8.708;2022-08-14T00:31:05;18.70;36.50
8487;DHT22;4280;50.534;8.708;2022-08-14T00:33:35;18.60;37.00
8487;DHT22;4280;50.534;8.708;2022-08-14T00:36:06;18.60;37.40
8487;DHT22;4280;50.534;8.708;2022-08-14T00:38:36;18.60;37.70
8487;DHT22;4280;50.534;8.708;2022-08-14T00:41:09;18.60;37.40
8487;DHT22;4280;50.534;8.708;2022-08-14T00:43:39;18.50;39.40
8487;DHT22;4280;50.534;8.708;2022-08-14T00:46:09;18.50;38.80
8487;DHT22;4280;50.534;8.708;2022-08-14T00:48:40;18.50;38.90
8487;DHT22;4280;50.534;8.708;2022-08-14T00:51:09;18.50;39.10
8487;DHT22;4280;50.534;8.708;2022-08-14T00:53:39;18.50;39.60
8487;DHT22;4280;50.534;8.708;2022-08-14T00:56:13;18.50;39.20
8487;DHT22;4280;50.534;8.708;2022-08-14T00:58:43;18.40;40.40
8487;DHT22;4280;50.534;8.708;2022-08-14T01:01:13;18.40;41.00
8487;DHT22;4280;50.534;8.708;2022-08-14T01:03:44;18.40;42.90
8487;DHT22;4280;50.534;8.708;2022-08-14T01:06:14;18.30;43.00
8487;DHT22;4280;50.534;8.708;2022-08-14T01:08:44;18.30;42.90
8487;DHT22;4280;50.534;8.708;2022-08-14T01:11:18;18.20;42.80
8487;DHT22;4280;50.534;8.708;2022-08-14T01:13:48;18.20;42.80
8487;DHT22;4280;50.534;8.708;2022-08-14T01:16:19;18.20;42.80
8487;DHT22;4280;50.534;8.708;2022-08-14T01:18:50;18.20;42.80
8487;DHT22;4280;50.534;8.708;2022-08-14T01:21:36;18.20;42.80
8487;DHT22;4280;50.534;8.708;2022-08-14T01:24:08;18.20;42.80
8487;DHT22;4280;50.534;8.708;2022-08-14T01:26:41;18.20;43.60
8487;DHT22;4280;50.534;8.708;2022-08-14T01:29:12;18.20;41.90
8487;DHT22;4280;50.534;8.708;2022-08-14T01:31:42;18.20;42.90
8487;DHT22;4280;50.534;8.708;2022-08-14T01:34:13;18.10;42.80
8487;DHT22;4280;50.534;8.708;2022-08-14T01:36:46;18.00;42.60
8487;DHT22;4280;50.534;8.708;2022-08-14T01:39:16;18.00;43.50
8487;DHT22;4280;50.534;8.708;2022-08-14T01:41:47;18.00;45.20
8487;DHT22;4280;50.534;8.708;2022-08-14T01:44:22;18.10;45.10
8487;DHT22;4280;50.534;8.708;2022-08-14T01:46:54;18.00;46.60
8487;DHT22;4280;50.534;8.708;2022-08-14T01:49:25;17.90;47.30
8487;DHT22;4280;50.534;8.708;2022-08-14T01:52:00;17.90;48.20
8487;DHT22;4280;50.534;8.708;2022-08-14T01:54:30;17.90;48.80
8487;DHT22;4280;50.534;8.708;2022-08-14T01:57:00;17.80;50.10
8487;DHT22;4280;50.534;8.708;2022-08-14T01:59:30;17.80;50.50
8487;DHT22;4280;50.534;8.708;2022-08-14T02:02:05;17.80;51.50
8487;DHT22;4280;50.534;8.708;2022-08-14T02:04:38;17.80;50.10
8487;DHT22;4280;50.534;8.708;2022-08-14T02:07:11;17.90;51.30
8487;DHT22;4280;50.534;8.708;2022-08-14T02:09:41;17.80;51.10
8487;DHT22;4280;50.534;8.708;2022-08-14T02:12:11;17.70;53.30
8487;DHT22;4280;50.534;8.708;2022-08-14T02:14:42;17.70;54.50
8487;DHT22;4280;50.534;8.708;2022-08-14T02:17:12;17.70;54.50
8487;DHT22;4280;50.534;8.708;2022-08-14T02:19:42;17.70;54.60
8487;DHT22;4280;50.534;8.708;2022-08-14T02:22:14;17.70;54.50
8487;DHT22;4280;50.534;8.708;2022-08-14T02:24:45;17.70;55.30
8487;DHT22;4280;50.534;8.708;2022-08-14T02:27:15;17.60;55.20
8487;DHT22;4280;50.534;8.708;2022-08-14T02:29:46;17.60;56.20
8487;DHT22;4280;50.534;8.708;2022-08-14T02:32:16;17.50;57.50
8487;DHT22;4280;50.534;8.708;2022-08-14T02:34:47;17.60;58.40
8487;DHT22;4280;50.534;8.708;2022-08-14T02:37:19;17.70;58.50
8487;DHT22;4280;50.534;8.708;2022-08-14T02:39:49;17.80;56.60
8487;DHT22;4280;50.534;8.708;2022-08-14T02:42:19;17.90;54.80
8487;DHT22;4280;50.534;8.708;2022-08-14T02:44:50;17.90;54.90
8487;DHT22;4280;50.534;8.708;2022-08-14T02:47:20;17.80;56.40
8487;DHT22;4280;50.534;8.708;2022-08-14T02:49:50;17.70;58.80
8487;DHT22;4280;50.534;8.708;2022-08-14T02:52:23;17.70;58.20
8487;DHT22;4280;50.534;8.708;2022-08-14T02:54:54;17.60;54.50
8487;DHT22;4280;50.534;8.708;2022-08-14T02:57:25;17.50;54.50
8487;DHT22;4280;50.534;8.708;2022-08-14T02:59:55;17.50;54.40
8487;DHT22;4280;50.534;8.708;2022-08-14T03:02:25;17.40;54.30
8487;DHT22;4280;50.534;8.708;2022-08-14T03:05:01;17.30;56.20
8487;DHT22;4280;50.534;8.708;2022-08-14T03:07:33;17.20;60.00
8487;DHT22;4280;50.534;8.708;2022-08-14T03:10:03;17.00;64.50
8487;DHT22;4280;50.534;8.708;2022-08-14T03:12:36;16.80;66.20
8487;DHT22;4280;50.534;8.708;2022-08-14T03:15:06;16.80;72.60
8487;DHT22;4280;50.534;8.708;2022-08-14T03:17:43;16.70;79.50
8487;DHT22;4280;50.534;8.708;2022-08-14T03:20:13;16.60;82.10
8487;DHT22;4280;50.534;8.708;2022-08-14T03:22:46;16.40;86.60
8487;DHT22;4280;50.534;8.708;2022-08-14T03:25:17;16.30;90.80
8487;DHT22;4280;50.534;8.708;2022-08-14T03:27:48;16.30;90.50
8487;DHT22;4280;50.534;8.708;2022-08-14T03:30:18;16.40;86.60
8487;DHT22;4280;50.534;8.708;2022-08-14T03:32:48;16.50;86.50
8487;DHT22;4280;50.534;8.708;2022-08-14T03:35:19;16.60;86.80
8487;DHT22;4280;50.534;8.708;2022-08-14T03:37:51;16.70;85.60
8487;DHT22;4280;50.534;8.708;2022-08-14T03:40:21;16.90;82.80
8487;DHT22;4280;50.534;8.708;2022-08-14T03:42:53;17.00;79.60
8487;DHT22;4280;50.534;8.708;2022-08-14T03:45:22;17.10;76.70
8487;DHT22;4280;50.534;8.708;2022-08-14T03:47:53;17.10;74.20
8487;DHT22;4280;50.534;8.708;2022-08-14T03:50:24;17.10;73.80
8487;DHT22;4280;50.534;8.708;2022-08-14T03:52:57;16.90;76.40
8487;DHT22;4280;50.534;8.708;2022-08-14T03:55:28;16.80;78.20
8487;DHT22;4280;50.534;8.708;2022-08-14T03:57:58;16.70;76.40
8487;DHT22;4280;50.534;8.708;2022-08-14T04:00:28;16.60;76.20
8487;DHT22;4280;50.534;8.708;2022-08-14T04:02:58;16.60;76.20
8487;DHT22;4280;50.534;8.708;2022-08-14T04:05:28;16.60;76.20
8487;DHT22;4280;50.534;8.708;2022-08-14T04:08:01;16.60;76.20
8487;DHT22;4280;50.534;8.708;2022-08-14T04:10:31;16.70;76.20
8487;DHT22;4280;50.534;8.708;2022-08-14T04:13:02;16.70;76.20
8487;DHT22;4280;50.534;8.708;2022-08-14T04:15:32;16.60;76.20
8487;DHT22;4280;50.534;8.708;2022-08-14T04:18:03;16.50;78.80
8487;DHT22;4280;50.534;8.708;2022-08-14T04:20:34;16.40;80.90
8487;DHT22;4280;50.534;8.708;2022-08-14T04:23:07;16.30;84.90
8487;DHT22;4280;50.534;8.708;2022-08-14T04:25:37;16.40;82.20
8487;DHT22;4280;50.534;8.708;2022-08-14T04:28:08;16.60;76.20
8487;DHT22;4280;50.534;8.708;2022-08-14T04:30:40;16.60;76.20
8487;DHT22;4280;50.534;8.708;2022-08-14T04:33:11;16.60;76.20
8487;DHT22;4280;50.534;8.708;2022-08-14T04:35:45;16.60;75.20
8487;DHT22;4280;50.534;8.708;2022-08-14T04:38:19;16.60;76.10
8487;DHT22;4280;50.534;8.708;2022-08-14T04:41:03;16.60;76.20
8487;DHT22;4280;50.534;8.708;2022-08-14T04:43:45;16.70;76.30
8487;DHT22;4280;50.534;8.708;2022-08-14T04:46:16;16.70;76.20
8487;DHT22;4280;50.534;8.708;2022-08-14T04:48:48;16.80;76.30
8487;DHT22;4280;50.534;8.708;2022-08-14T04:51:19;16.80;76.30
8487;DHT22;4280;50.534;8.708;2022-08-14T04:53:56;16.80;78.60
8487;DHT22;4280;50.534;8.708;2022-08-14T04:56:26;16.90;77.60
8487;DHT22;4280;50.534;8.708;2022-08-14T04:58:58;17.00;76.60
8487;DHT22;4280;50.534;8.708;2022-08-14T05:01:30;17.00;76.50
8487;DHT22;4280;50.534;8.708;2022-08-14T05:04:00;17.20;76.70
8487;DHT22;4280;50.534;8.708;2022-08-14T05:06:30;17.40;71.50
8487;DHT22;4280;50.534;8.708;2022-08-14T05:09:05;17.60;69.40
8487;DHT22;4280;50.534;8.708;2022-08-14T05:11:35;17.90;66.30
8487;DHT22;4280;50.534;8.708;2022-08-14T05:14:05;18.50;56.90
8487;DHT22;4280;50.534;8.708;2022-08-14T05:16:36;18.90;51.60
8487;DHT22;4280;50.534;8.708;2022-08-14T05:19:06;19.20;44.40
8487;DHT22;4280;50.534;8.708;2022-08-14T05:21:39;19.60;43.60
8487;DHT22;4280;50.534;8.708;2022-08-14T05:24:12;20.00;36.70
8487;DHT22;4280;50.534;8.708;2022-08-14T05:26:42;20.60;32.40
8487;DHT22;4280;50.534;8.708;2022-08-14T05:29:12;21.00;25.80
8487;DHT22;4280;50.534;8.708;2022-08-14T05:31:43;21.00;22.80
8487;DHT22;4280;50.534;8.708;2022-08-14T05:34:13;21.20;22.30
8487;DHT22;4280;50.534;8.708;2022-08-14T05:36:43;20.90;22.10
8487;DHT22;4280;50.534;8.708;2022-08-14T05:39:16;20.90;22.10
8487;DHT22;4280;50.534;8.708;2022-08-14T05:41:46;21.00;24.40
8487;DHT22;4280;50.534;8.708;2022-08-14T05:44:16;21.40;22.50
8487;DHT22;4280;50.534;8.708;2022-08-14T05:46:46;22.20;21.40
8487;DHT22;4280;50.534;8.708;2022-08-14T05:49:16;22.90;17.70
8487;DHT22;4280;50.534;8.708;2022-08-14T05:51:46;23.10;15.50
8487;DHT22;4280;50.534;8.708;2022-08-14T05:54:18;23.00;15.50
8487;DHT22;4280;50.534;8.708;2022-08-14T05:56:48;22.60;17.00
8487;DHT22;4280;50.534;8.708;2022-08-14T05:59:18;22.00;20.00
8487;DHT22;4280;50.534;8.708;2022-08-14T06:01:48;21.70;22.60
8487;DHT22;4280;50.534;8.708;2022-08-14T06:04:18;21.60;22.60
8487;DHT22;4280;50.534;8.708;2022-08-14T06:06:48;21.70;22.70
8487;DHT22;4280;50.534;8.708;2022-08-14T06:09:20;21.60;22.60
8487;DHT22;4280;50.534;8.708;2022-08-14T06:11:50;21.70;22.70
8487;DHT22;4280;50.534;8.708;2022-08-14T06:14:20;21.60;23.70
8487;DHT22;4280;50.534;8.708;2022-08-14T06:16:50;21.50;24.10
8487;DHT22;4280;50.534;8.708;2022-08-14T06:19:20;21.30;26.50
8487;DHT22;4280;50.534;8.708;2022-08-14T06:21:50;21.20;27.40
8487;DHT22;4280;50.534;8.708;2022-08-14T06:24:24;21.10;29.60
8487;DHT22;4280;50.534;8.708;2022-08-14T06:26:54;21.00;29.70
8487;DHT22;4280;50.534;8.708;2022-08-14T06:29:24;21.10;30.80
8487;DHT22;4280;50.534;8.708;2022-08-14T06:31:54;21.20;29.80
8487;DHT22;4280;50.534;8.708;2022-08-14T06:34:24;21.00;32.80
8487;DHT22;4280;50.534;8.708;2022-08-14T06:36:54;21.00;32.80
8487;DHT22;4280;50.534;8.708;2022-08-14T06:39:27;21.10;32.90
8487;DHT22;4280;50.534;8.708;2022-08-14T06:41:56;21.10;32.90
8487;DHT22;4280;50.534;8.708;2022-08-14T06:44:27;21.10;32.90
8487;DHT22;4280;50.534;8.708;2022-08-14T06:46:58;21.30;33.10
8487;DHT22;4280;50.534;8.708;2022-08-14T06:49:30;21.50;33.20
8487;DHT22;4280;50.534;8.708;2022-08-14T06:52:00;21.50;33.20
8487;DHT22;4280;50.534;8.708;2022-08-14T06:54:33;21.70;31.20
8487;DHT22;4280;50.534;8.708;2022-08-14T06:57:03;21.80;31.00
8487;DHT22;4280;50.534;8.708;2022-08-14T06:59:33;21.90;30.50
8487;DHT22;4280;50.534;8.708;2022-08-14T07:02:03;22.00;30.00
8487;DHT22;4280;50.534;8.708;2022-08-14T07:04:45;22.20;28.20
8487;DHT22;4280;50.534;8.708;2022-08-14T07:07:34;22.40;28.30
8487;DHT22;4280;50.534;8.708;2022-08-14T07:10:07;22.60;26.60
8487;DHT22;4280;50.534;8.708;2022-08-14T07:12:38;22.80;26.20
8487;DHT22;4280;50.534;8.708;2022-08-14T07:15:08;22.80;26.00
8487;DHT22;4280;50.534;8.708;2022-08-14T07:17:44;22.90;25.30
8487;DHT22;4280;50.534;8.708;2022-08-14T07:20:14;23.10;25.10
8487;DHT22;4280;50.534;8.708;2022-08-14T07:22:46;23.30;23.80
8487;DHT22;4280;50.534;8.708;2022-08-14T07:25:19;23.50;23.90
8487;DHT22;4280;50.534;8.708;2022-08-14T07:27:49;23.70;22.40
8487;DHT22;4280;50.534;8.708;2022-08-14T07:30:19;23.90;21.30
8487;DHT22;4280;50.534;8.708;2022-08-14T07:32:49;24.10;19.20
8487;DHT22;4280;50.534;8.708;2022-08-14T07:35:19;24.10;19.20
8487;DHT22;4280;50.534;8.708;2022-08-14T07:37:49;24.20;18.60
8487;DHT22;4280;50.534;8.708;2022-08-14T07:40:21;24.20;17.90
8487;DHT22;4280;50.534;8.708;2022-08-14T07:42:52;24.40;17.10
8487;DHT22;4280;50.534;8.708;2022-08-14T07:45:22;24.50;17.70
8487;DHT22;4280;50.534;8.708;2022-08-14T07:47:52;24.60;15.80
8487;DHT22;4280;50.534;8.708;2022-08-14T07:50:23;24.70;16.70
8487;DHT22;4280;50.534;8.708;2022-08-14T07:52:53;24.70;14.70
8487;DHT22;4280;50.534;8.708;2022-08-14T07:55:26;24.70;14.60
8487;DHT22;4280;50.534;8.708;2022-08-14T07:57:56;24.70;14.30
8487;DHT22;4280;50.534;8.708;2022-08-14T08:00:26;24.90;14.50
8487;DHT22;4280;50.534;8.708;2022-08-14T08:02:57;24.90;14.50
8487;DHT22;4280;50.534;8.708;2022-08-14T08:05:28;24.90;11.30
8487;DHT22;4280;50.534;8.708;2022-08-14T08:17:31;25.10;11.40
8487;DHT22;4280;50.534;8.708;2022-08-14T08:20:02;25.40;11.10
8487;DHT22;4280;50.534;8.708;2022-08-14T08:22:34;25.50;12.20
8487;DHT22;4280;50.534;8.708;2022-08-14T08:25:06;25.70;9.80
8487;DHT22;4280;50.534;8.708;2022-08-14T08:27:37;26.00;9.70
8487;DHT22;4280;50.534;8.708;2022-08-14T08:30:09;26.00;7.90
8487;DHT22;4280;50.534;8.708;2022-08-14T08:32:42;26.10;7.50
8487;DHT22;4280;50.534;8.708;2022-08-14T08:35:16;25.90;6.50
8487;DHT22;4280;50.534;8.708;2022-08-14T08:37:46;25.90;6.80
8487;DHT22;4280;50.534;8.708;2022-08-14T08:40:23;26.00;5.30
8487;DHT22;4280;50.534;8.708;2022-08-14T08:42:55;26.00;5.60
8487;DHT22;4280;50.534;8.708;2022-08-14T08:45:26;26.20;7.80
8487;DHT22;4280;50.534;8.708;2022-08-14T08:47:58;26.30;6.30
8487;DHT22;4280;50.534;8.708;2022-08-14T08:50:30;26.30;5.00
8487;DHT22;4280;50.534;8.708;2022-08-14T08:53:00;26.40;4.80
8487;DHT22;4280;50.534;8.708;2022-08-14T08:55:32;26.50;4.40
8487;DHT22;4280;50.534;8.708;2022-08-14T08:58:05;26.50;5.20
8487;DHT22;4280;50.534;8.708;2022-08-14T09:00:37;26.60;5.30
8487;DHT22;4280;50.534;8.708;2022-08-14T09:03:11;26.70;4.70
8487;DHT22;4280;50.534;8.708;2022-08-14T09:05:51;26.60;5.20
8487;DHT22;4280;50.534;8.708;2022-08-14T09:08:22;26.90;4.70
8487;DHT22;4280;50.534;8.708;2022-08-14T09:10:54;27.20;4.30
8487;DHT22;4280;50.534;8.708;2022-08-14T09:13:25;27.10;2.80
8487;DHT22;4280;50.534;8.708;2022-08-14T09:15:55;27.10;3.80
8487;DHT22;4280;50.534;8.708;2022-08-14T09:18:29;27.40;3.10
8487;DHT22;4280;50.534;8.708;2022-08-14T09:20:59;27.60;1.00
8487;DHT22;4280;50.534;8.708;2022-08-14T09:23:29;27.80;1.00
8487;DHT22;4280;50.534;8.708;2022-08-14T09:26:00;27.50;1.00
8487;DHT22;4280;50.534;8.708;2022-08-14T09:28:30;27.60;1.00
8487;DHT22;4280;50.534;8.708;2022-08-14T09:31:00;27.90;1.00
8487;DHT22;4280;50.534;8.708;2022-08-14T09:33:37;28.10;1.00
8487;DHT22;4280;50.534;8.708;2022-08-14T09:36:24;28.10;1.00
8487;DHT22;4280;50.534;8.708;2022-08-14T09:39:04;28.00;1.00
8487;DHT22;4280;50.534;8.708;2022-08-14T09:41:47;28.00;1.00
8487;DHT22;4280;50.534;8.708;2022-08-14T09:44:27;27.90;1.00
8487;DHT22;4280;50.534;8.708;2022-08-14T09:47:05;28.10;1.00
8487;DHT22;4280;50.534;8.708;2022-08-14T09:49:38;28.10;1.00
8487;DHT22;4280;50.534;8.708;2022-08-14T09:52:10;27.90;1.00
8487;DHT22;4280;50.534;8.708;2022-08-14T09:54:41;28.10;1.00
8487;DHT22;4280;50.534;8.708;2022-08-14T09:57:23;28.40;1.00
8487;DHT22;4280;50.534;8.708;2022-08-14T09:59:54;28.40;1.00
8487;DHT22;4280;50.534;8.708;2022-08-14T10:02:26;28.70;1.00
8487;DHT22;4280;50.534;8.708;2022-08-14T10:05:02;28.60;1.00
8487;DHT22;4280;50.534;8.708;2022-08-14T10:07:36;28.80;1.00
8487;DHT22;4280;50.534;8.708;2022-08-14T10:10:26;28.80;1.00
8487;DHT22;4280;50.534;8.708;2022-08-14T10:13:02;28.90;1.00
8487;DHT22;4280;50.534;8.708;2022-08-14T10:15:36;28.90;1.00
8487;DHT22;4280;50.534;8.708;2022-08-14T10:18:09;28.70;1.00
8487;DHT22;4280;50.534;8.708;2022-08-14T10:20:49;28.50;1.00
8487;DHT22;4280;50.534;8.708;2022-08-14T10:23:24;28.60;1.00
8487;DHT22;4280;50.534;8.708;2022-08-14T10:25:56;29.00;1.00
8487;DHT22;4280;50.534;8.708;2022-08-14T10:28:36;29.00;1.00
8487;DHT22;4280;50.534;8.708;2022-08-14T10:31:21;29.30;1.00
8487;DHT22;4280;50.534;8.708;2022-08-14T10:34:02;29.70;1.00
8487;DHT22;4280;50.534;8.708;2022-08-14T10:36:36;29.90;1.00
8487;DHT22;4280;50.534;8.708;2022-08-14T10:39:08;29.80;1.00
8487;DHT22;4280;50.534;8.708;2022-08-14T10:41:45;29.80;1.00
8487;DHT22;4280;50.534;8.708;2022-08-14T10:44:16;29.80;1.00
8487;DHT22;4280;50.534;8.708;2022-08-14T10:46:50;29.80;1.00
8487;DHT22;4280;50.534;8.708;2022-08-14T10:49:24;29.60;1.00
8487;DHT22;4280;50.534;8.708;2022-08-14T10:51:58;29.60;1.00
8487;DHT22;4280;50.534;8.708;2022-08-14T10:54:32;29.40;1.00
8487;DHT22;4280;50.534;8.708;2022-08-14T10:57:14;29.40;1.00
8487;DHT22;4280;50.534;8.708;2022-08-14T10:59:49;29.10;1.00
8487;DHT22;4280;50.534;8.708;2022-08-14T11:02:22;28.90;1.00
8487;DHT22;4280;50.534;8.708;2022-08-14T11:05:04;29.00;1.00
8487;DHT22;4280;50.534;8.708;2022-08-14T11:07:40;29.10;1.00
8487;DHT22;4280;50.534;8.708;2022-08-14T11:10:20;29.40;1.00
8487;DHT22;4280;50.534;8.708;2022-08-14T11:12:53;29.80;1.00
8487;DHT22;4280;50.534;8.708;2022-08-14T11:15:25;30.30;1.00
8487;DHT22;4280;50.534;8.708;2022-08-14T11:17:56;30.60;1.00
8487;DHT22;4280;50.534;8.708;2022-08-14T11:20:27;30.50;1.00
8487;DHT22;4280;50.534;8.708;2022-08-14T11:23:00;30.60;1.00
8487;DHT22;4280;50.534;8.708;2022-08-14T11:25:31;30.40;1.00
8487;DHT22;4280;50.534;8.708;2022-08-14T11:28:03;30.20;1.00
8487;DHT22;4280;50.534;8.708;2022-08-14T11:30:34;29.90;1.00
8487;DHT22;4280;50.534;8.708;2022-08-14T11:33:08;29.80;1.00
8487;DHT22;4280;50.534;8.708;2022-08-14T11:35:38;29.90;1.00
8487;DHT22;4280;50.534;8.708;2022-08-14T11:38:11;30.20;1.00
8487;DHT22;4280;50.534;8.708;2022-08-14T11:40:41;30.40;1.00
8487;DHT22;4280;50.534;8.708;2022-08-14T11:43:13;30.40;1.00
8487;DHT22;4280;50.534;8.708;2022-08-14T11:45:45;30.40;1.00
8487;DHT22;4280;50.534;8.708;2022-08-14T11:48:16;30.40;1.00
8487;DHT22;4280;50.534;8.708;2022-08-14T11:50:48;30.70;1.00
8487;DHT22;4280;50.534;8.708;2022-08-14T11:53:23;30.80;1.00
8487;DHT22;4280;50.534;8.708;2022-08-14T11:55:56;31.00;1.00
8487;DHT22;4280;50.534;8.708;2022-08-14T11:58:30;31.20;1.00
8487;DHT22;4280;50.534;8.708;2022-08-14T12:01:02;31.40;1.00
8487;DHT22;4280;50.534;8.708;2022-08-14T12:03:34;31.30;1.00
8487;DHT22;4280;50.534;8.708;2022-08-14T12:06:06;31.30;1.00
8487;DHT22;4280;50.534;8.708;2022-08-14T12:08:39;30.90;1.00
8487;DHT22;4280;50.534;8.708;2022-08-14T12:11:10;30.40;1.00
8487;DHT22;4280;50.534;8.708;2022-08-14T12:13:41;30.20;1.00
8487;DHT22;4280;50.534;8.708;2022-08-14T12:16:12;30.20;1.00
8487;DHT22;4280;50.534;8.708;2022-08-14T12:18:47;30.50;1.00
8487;DHT22;4280;50.534;8.708;2022-08-14T12:21:17;30.80;1.00
8487;DHT22;4280;50.534;8.708;2022-08-14T12:24:02;30.60;1.00
8487;DHT22;4280;50.534;8.708;2022-08-14T12:26:33;30.50;1.00
8487;DHT22;4280;50.534;8.708;2022-08-14T12:29:04;30.50;1.00
8487;DHT22;4280;50.534;8.708;2022-08-14T12:31:37;30.50;1.00
8487;DHT22;4280;50.534;8.708;2022-08-14T12:34:08;30.70;1.00
8487;DHT22;4280;50.534;8.708;2022-08-14T12:36:40;30.70;1.00
8487;DHT22;4280;50.534;8.708;2022-08-14T12:39:18;30.60;1.00
8487;DHT22;4280;50.534;8.708;2022-08-14T12:41:50;30.60;1.00
8487;DHT22;4280;50.534;8.708;2022-08-14T12:44:27;30.30;1.00
8487;DHT22;4280;50.534;8.708;2022-08-14T12:47:02;30.30;1.00
8487;DHT22;4280;50.534;8.708;2022-08-14T12:49:33;30.50;1.00
8487;DHT22;4280;50.534;8.708;2022-08-14T12:52:04;30.60;1.00
8487;DHT22;4280;50.534;8.708;2022-08-14T12:54:40;30.70;1.00
8487;DHT22;4280;50.534;8.708;2022-08-14T12:57:10;30.80;1.00
8487;DHT22;4280;50.534;8.708;2022-08-14T12:59:45;30.80;1.00
8487;DHT22;4280;50.534;8.708;2022-08-14T13:02:20;30.70;1.00
8487;DHT22;4280;50.534;8.708;2022-08-14T13:04:50;30.50;1.00
8487;DHT22;4280;50.534;8.708;2022-08-14T13:07:21;30.30;1.00
8487;DHT22;4280;50.534;8.708;2022-08-14T13:09:55;30.50;1.00
8487;DHT22;4280;50.534;8.708;2022-08-14T13:12:26;30.60;1.00
8487;DHT22;4280;50.534;8.708;2022-08-14T13:14:59;30.80;1.00
8487;DHT22;4280;50.534;8.708;2022-08-14T13:17:29;31.00;1.00
8487;DHT22;4280;50.534;8.708;2022-08-14T13:20:00;31.10;1.00
8487;DHT22;4280;50.534;8.708;2022-08-14T13:22:32;31.10;1.00
8487;DHT22;4280;50.534;8.708;2022-08-14T13:25:06;31.00;1.00
8487;DHT22;4280;50.534;8.708;2022-08-14T13:27:37;31.00;1.00
8487;DHT22;4280;50.534;8.708;2022-08-14T13:30:08;31.30;1.00
8487;DHT22;4280;50.534;8.708;2022-08-14T13:32:39;31.50;1.00
8487;DHT22;4280;50.534;8.708;2022-08-14T13:35:11;31.70;1.00
8487;DHT22;4280;50.534;8.708;2022-08-14T13:37:41;31.70;1.00
8487;DHT22;4280;50.534;8.708;2022-08-14T13:40:16;31.80;1.00
8487;DHT22;4280;50.534;8.708;2022-08-14T13:42:48;31.80;1.00
8487;DHT22;4280;50.534;8.708;2022-08-14T13:45:18;31.50;1.00
8487;DHT22;4280;50.534;8.708;2022-08-14T13:47:49;31.50;1.00
8487;DHT22;4280;50.534;8.708;2022-08-14T13:50:21;31.40;1.00
8487;DHT22;4280;50.534;8.708;2022-08-14T13:52:51;31.50;1.00
8487;DHT22;4280;50.534;8.708;2022-08-14T13:55:25;31.60;1.00
8487;DHT22;4280;50.534;8.708;2022-08-14T13:57:58;31.80;1.00
8487;DHT22;4280;50.534;8.708;2022-08-14T14:00:31;31.50;1.00
8487;DHT22;4280;50.534;8.708;2022-08-14T14:03:02;31.70;1.00
8487;DHT22;4280;50.534;8.708;2022-08-14T14:05:34;31.90;1.00
8487;DHT22;4280;50.534;8.708;2022-08-14T14:08:05;31.80;1.00
8487;DHT22;4280;50.534;8.708;2022-08-14T14:10:38;31.50;1.00
8487;DHT22;4280;50.534;8.708;2022-08-14T14:13:08;31.50;1.00
8487;DHT22;4280;50.534;8.708;2022-08-14T14:15:39;31.50;1.00
8487;DHT22;4280;50.534;8.708;2022-08-14T14:18:10;31.70;1.00
8487;DHT22;4280;50.534;8.708;2022-08-14T14:20:43;31.70;1.00
8487;DHT22;4280;50.534;8.708;2022-08-14T14:23:13;31.70;1.00
8487;DHT22;4280;50.534;8.708;2022-08-14T14:25:46;32.00;1.00
8487;DHT22;4280;50.534;8.708;2022-08-14T14:28:18;32.00;1.00
8487;DHT22;4280;50.534;8.708;2022-08-14T14:30:49;32.10;1.00
8487;DHT22;4280;50.534;8.708;2022-08-14T14:33:21;32.10;1.00
8487;DHT22;4280;50.534;8.708;2022-08-14T14:36:15;32.20;1.00
8487;DHT22;4280;50.534;8.708;2022-08-14T14:38:51;32.10;1.00
8487;DHT22;4280;50.534;8.708;2022-08-14T14:41:25;31.80;1.00
8487;DHT22;4280;50.534;8.708;2022-08-14T14:43:56;31.70;1.00
8487;DHT22;4280;50.534;8.708;2022-08-14T14:46:27;31.70;1.00
8487;DHT22;4280;50.534;8.708;2022-08-14T14:49:02;31.60;1.00
8487;DHT22;4280;50.534;8.708;2022-08-14T14:51:34;31.70;1.00
8487;DHT22;4280;50.534;8.708;2022-08-14T14:54:10;31.80;1.00
8487;DHT22;4280;50.534;8.708;2022-08-14T14:56:43;31.80;1.00
8487;DHT22;4280;50.534;8.708;2022-08-14T14:59:14;32.00;1.00
8487;DHT22;4280;50.534;8.708;2022-08-14T15:01:46;32.20;1.00
8487;DHT22;4280;50.534;8.708;2022-08-14T15:04:20;32.20;1.00
8487;DHT22;4280;50.534;8.708;2022-08-14T15:06:50;32.10;1.00
8487;DHT22;4280;50.534;8.708;2022-08-14T15:09:20;32.10;1.00
8487;DHT22;4280;50.534;8.708;2022-08-14T15:11:53;32.20;1.00
8487;DHT22;4280;50.534;8.708;2022-08-14T15:14:23;32.00;1.00
8487;DHT22;4280;50.534;8.708;2022-08-14T15:16:53;32.10;1.00
8487;DHT22;4280;50.534;8.708;2022-08-14T15:19:23;32.00;1.00
8487;DHT22;4280;50.534;8.708;2022-08-14T15:21:53;32.00;1.00
8487;DHT22;4280;50.534;8.708;2022-08-14T15:24:23;32.10;1.00
8487;DHT22;4280;50.534;8.708;2022-08-14T15:26:55;32.00;1.00
8487;DHT22;4280;50.534;8.708;2022-08-14T15:29:25;31.70;1.00
8487;DHT22;4280;50.534;8.708;2022-08-14T15:31:55;31.80;1.00
8487;DHT22;4280;50.534;8.708;2022-08-14T15:34:25;31.90;1.00
8487;DHT22;4280;50.534;8.708;2022-08-14T15:36:56;32.00;1.00
8487;DHT22;4280;50.534;8.708;2022-08-14T15:39:26;32.00;1.00
8487;DHT22;4280;50.534;8.708;2022-08-14T15:41:58;31.80;1.00
8487;DHT22;4280;50.534;8.708;2022-08-14T15:44:29;31.70;1.00
8487;DHT22;4280;50.534;8.708;2022-08-14T15:47:00;31.80;1.00
8487;DHT22;4280;50.534;8.708;2022-08-14T15:49:32;32.00;1.00
8487;DHT22;4280;50.534;8.708;2022-08-14T15:52:03;32.20;1.00
8487;DHT22;4280;50.534;8.708;2022-08-14T15:54:34;32.30;1.00
8487;DHT22;4280;50.534;8.708;2022-08-14T15:57:07;32.40;1.00
8487;DHT22;4280;50.534;8.708;2022-08-14T15:59:38;32.50;1.00
8487;DHT22;4280;50.534;8.708;2022-08-14T16:02:21;32.60;1.00
8487;DHT22;4280;50.534;8.708;2022-08-14T16:04:53;32.80;1.00
8487;DHT22;4280;50.534;8.708;2022-08-14T16:07:23;32.90;1.00
8487;DHT22;4280;50.534;8.708;2022-08-14T16:09:53;32.80;1.00
8487;DHT22;4280;50.534;8.708;2022-08-14T16:12:40;32.60;1.00
8487;DHT22;4280;50.534;8.708;2022-08-14T16:15:10;32.40;1.00
8487;DHT22;4280;50.534;8.708;2022-08-14T16:17:41;32.50;1.00
8487;DHT22;4280;50.534;8.708;2022-08-14T16:20:11;32.50;1.00
8487;DHT22;4280;50.534;8.708;2022-08-14T16:22:41;32.40;1.00
8487;DHT22;4280;50.534;8.708;2022-08-14T16:25:12;32.50;1.00
8487;DHT22;4280;50.534;8.708;2022-08-14T16:27:46;32.70;1.00
8487;DHT22;4280;50.534;8.708;2022-08-14T16:30:16;33.00;1.00
8487;DHT22;4280;50.534;8.708;2022-08-14T16:32:46;33.20;1.00
8487;DHT22;4280;50.534;8.708;2022-08-14T16:35:17;33.30;1.00
8487;DHT22;4280;50.534;8.708;2022-08-14T16:37:47;33.40;1.00
8487;DHT22;4280;50.534;8.708;2022-08-14T16:40:18;33.40;1.00
8487;DHT22;4280;50.534;8.708;2022-08-14T16:42:54;33.30;1.00
8487;DHT22;4280;50.534;8.708;2022-08-14T16:45:25;33.50;1.00
8487;DHT22;4280;50.534;8.708;2022-08-14T16:47:56;33.60;1.00
8487;DHT22;4280;50.534;8.708;2022-08-14T16:50:26;33.60;1.00